YYD weather

Smithers Airport
Smithers, British Columbia, Canada

Public forecast

Using degrees Celsius for public forecast. Weather courtesy of forecast.io.

Current aviation weather report (METAR) for Smithers Airport

Retrieved 2020/02/22 22:00 UTC (38 minutes ago):

CYYD 222200Z 26008G17KT 190V280 25SM SCT060 04/M10 A2994 RMK SC3 SLP158

Aviation forecast (TAF) for Smithers Airport

Retrieved 2020/02/22 19:00 UTC (4 hours ago):

TAF CYYD 221838Z 2219/2306 14008KT P6SM SCT060 TEMPO 2219/2306 BKN060 BECMG 2219/2221 VRB03KT RMK NXT FCST BY 230100Z